createdAt,value
2022-08-30T00:01:12.501Z,67.31
2022-08-30T00:03:46.206Z,67.24
2022-08-30T00:06:15.875Z,67.47
2022-08-30T00:08:44.162Z,67.18
2022-08-30T00:11:14.118Z,66.80
2022-08-30T00:13:43.398Z,67.02
2022-08-30T00:16:12.457Z,66.73
2022-08-30T00:18:40.394Z,67.54
2022-08-30T00:21:07.595Z,67.70
2022-08-30T00:23:34.349Z,67.71
2022-08-30T00:26:02.619Z,67.77
2022-08-30T00:28:30.254Z,68.10
2022-08-30T00:30:57.038Z,67.93
2022-08-30T00:33:23.992Z,67.81
2022-08-30T00:35:50.742Z,67.90
2022-08-30T00:38:17.571Z,68.51
2022-08-30T00:40:45.297Z,69.17
2022-08-30T00:43:19.723Z,70.16
2022-08-30T00:45:47.261Z,69.88
2022-08-30T00:48:14.092Z,70.15
2022-08-30T00:50:47.949Z,70.73
2022-08-30T00:53:19.397Z,70.56
2022-08-30T00:55:46.837Z,71.10
2022-08-30T00:58:21.388Z,71.27
2022-08-30T01:00:50.738Z,71.19
2022-08-30T01:03:17.852Z,70.35
2022-08-30T01:05:44.834Z,70.84
2022-08-30T01:08:14.108Z,71.12
2022-08-30T01:10:40.880Z,71.17
2022-08-30T01:13:08.193Z,70.89
2022-08-30T01:15:35.805Z,71.02
2022-08-30T01:18:03.548Z,71.41
2022-08-30T01:21:01.343Z,71.33
2022-08-30T01:23:28.881Z,71.20
2022-08-30T01:25:57.365Z,71.41
2022-08-30T01:28:26.581Z,71.50
2022-08-30T01:30:54.242Z,71.91
2022-08-30T01:33:21.850Z,71.90
2022-08-30T01:35:56.415Z,71.97
2022-08-30T01:38:36.468Z,72.11
2022-08-30T01:41:30.296Z,72.40
2022-08-30T01:44:00.001Z,72.60
2022-08-30T01:46:31.164Z,72.77
2022-08-30T01:48:58.593Z,72.92
2022-08-30T01:51:27.379Z,72.71
2022-08-30T01:53:54.309Z,73.18
2022-08-30T01:56:22.599Z,73.20
2022-08-30T01:58:49.786Z,73.42
2022-08-30T02:01:19.351Z,73.15
2022-08-30T02:03:46.462Z,73.20
2022-08-30T02:06:17.265Z,73.45
2022-08-30T02:08:44.868Z,73.41
2022-08-30T02:11:12.531Z,73.48
2022-08-30T02:13:40.406Z,73.38
2022-08-30T02:16:09.303Z,73.25
2022-08-30T02:18:37.347Z,73.41
2022-08-30T02:21:04.089Z,73.31
2022-08-30T02:23:31.312Z,73.64
2022-08-30T02:25:58.334Z,73.33
2022-08-30T02:28:25.823Z,73.89
2022-08-30T02:30:52.892Z,74.02
2022-08-30T02:33:19.849Z,74.09
2022-08-30T02:35:46.667Z,73.63
2022-08-30T02:38:13.964Z,73.63
2022-08-30T02:40:40.962Z,73.42
2022-08-30T02:43:07.911Z,73.22
2022-08-30T02:45:34.748Z,73.28
2022-08-30T02:48:01.672Z,73.82
2022-08-30T02:50:28.786Z,74.01
2022-08-30T02:52:55.670Z,73.93
2022-08-30T02:55:23.143Z,74.28
2022-08-30T02:57:49.913Z,73.57
2022-08-30T03:00:19.644Z,73.64
2022-08-30T03:02:46.901Z,73.25
2022-08-30T03:05:15.646Z,73.95
2022-08-30T03:07:42.490Z,74.08
2022-08-30T03:10:10.084Z,73.90
2022-08-30T03:12:36.890Z,73.96
2022-08-30T03:15:06.012Z,73.83
2022-08-30T03:17:32.748Z,73.94
2022-08-30T03:20:00.896Z,73.84
2022-08-30T03:22:28.496Z,74.30
2022-08-30T03:24:59.610Z,74.18
2022-08-30T03:27:27.108Z,74.17
2022-08-30T03:29:54.602Z,74.08
2022-08-30T03:32:21.620Z,73.77
2022-08-30T03:34:48.610Z,74.19
2022-08-30T03:37:15.380Z,74.54
2022-08-30T03:39:42.479Z,74.67
2022-08-30T03:42:10.586Z,74.54
2022-08-30T03:44:37.572Z,75.08
2022-08-30T03:47:05.605Z,75.16
2022-08-30T03:49:32.358Z,75.02
2022-08-30T03:51:59.208Z,74.48
2022-08-30T03:54:26.136Z,74.80
2022-08-30T03:56:52.993Z,74.65
2022-08-30T03:59:19.816Z,75.24
2022-08-30T04:01:47.913Z,75.32
2022-08-30T04:04:20.547Z,75.02
2022-08-30T04:06:48.045Z,75.87
2022-08-30T04:09:14.731Z,75.81
2022-08-30T04:11:41.451Z,75.58
2022-08-30T04:14:08.155Z,75.85
2022-08-30T04:16:35.214Z,75.69
2022-08-30T04:19:02.006Z,75.72
2022-08-30T04:21:42.853Z,75.18
2022-08-30T04:24:11.309Z,75.24
2022-08-30T04:26:38.267Z,75.68
2022-08-30T04:29:05.704Z,75.95
2022-08-30T04:31:35.507Z,75.57
2022-08-30T04:34:02.745Z,75.28
2022-08-30T04:36:29.659Z,75.37
2022-08-30T04:38:56.733Z,75.52
2022-08-30T04:41:24.549Z,75.56
2022-08-30T04:43:51.639Z,75.79
2022-08-30T04:46:19.425Z,75.65
2022-08-30T04:48:46.714Z,74.99
2022-08-30T04:51:16.098Z,75.66
2022-08-30T04:53:43.510Z,75.68
2022-08-30T04:56:13.110Z,75.09
2022-08-30T04:58:39.883Z,75.78
2022-08-30T05:01:12.552Z,74.81
2022-08-30T05:03:41.115Z,75.20
2022-08-30T05:06:08.438Z,74.65
2022-08-30T05:08:35.417Z,75.11
2022-08-30T05:11:04.590Z,74.93
2022-08-30T05:13:35.655Z,75.03
2022-08-30T05:16:06.116Z,75.78
2022-08-30T05:18:33.756Z,75.95
2022-08-30T05:21:07.756Z,75.15
2022-08-30T05:23:35.568Z,74.72
2022-08-30T05:26:08.405Z,74.70
2022-08-30T05:28:36.372Z,74.56
2022-08-30T05:31:13.947Z,74.85
2022-08-30T05:33:41.876Z,75.18
2022-08-30T05:36:10.094Z,75.64
2022-08-30T05:38:37.376Z,75.14
2022-08-30T05:41:10.575Z,75.53
2022-08-30T05:43:38.042Z,76.50
2022-08-30T05:46:07.978Z,75.87
2022-08-30T05:48:38.176Z,76.28
2022-08-30T05:51:11.594Z,75.91
2022-08-30T05:53:39.820Z,76.26
2022-08-30T05:56:10.618Z,76.52
2022-08-30T05:58:38.097Z,76.49
2022-08-30T06:01:05.312Z,76.77
2022-08-30T06:03:32.999Z,76.93
2022-08-30T06:06:00.686Z,77.01
2022-08-30T06:08:27.795Z,76.61
2022-08-30T06:10:55.160Z,76.82
2022-08-30T06:13:22.498Z,76.35
2022-08-30T06:15:49.720Z,76.44
2022-08-30T06:18:16.810Z,76.47
2022-08-30T06:20:44.949Z,75.91
2022-08-30T06:23:11.788Z,76.06
2022-08-30T06:25:42.041Z,76.20
2022-08-30T06:28:09.807Z,75.73
2022-08-30T06:30:36.698Z,76.05
2022-08-30T06:33:12.045Z,75.86
2022-08-30T06:35:56.800Z,76.05
2022-08-30T06:38:35.702Z,76.84
2022-08-30T06:41:12.864Z,76.17
2022-08-30T06:43:40.093Z,75.14
2022-08-30T06:46:09.954Z,75.07
2022-08-30T06:48:51.053Z,74.40
2022-08-30T06:51:22.737Z,73.92
2022-08-30T06:53:50.341Z,74.52
2022-08-30T06:56:18.961Z,74.49
2022-08-30T06:58:46.969Z,74.86
2022-08-30T07:01:16.084Z,74.77
2022-08-30T07:03:43.050Z,74.34
2022-08-30T07:06:16.476Z,74.48
2022-08-30T07:08:47.086Z,73.95
2022-08-30T07:11:14.913Z,74.08
2022-08-30T07:13:42.005Z,73.12
2022-08-30T07:16:12.916Z,73.49
2022-08-30T07:18:54.830Z,74.04
2022-08-30T07:21:30.150Z,73.99
2022-08-30T07:23:58.798Z,73.79
2022-08-30T07:26:29.206Z,73.61
2022-08-30T07:28:57.415Z,73.47
2022-08-30T07:31:25.203Z,73.72
2022-08-30T07:33:52.520Z,73.59
2022-08-30T07:36:21.828Z,73.76
2022-08-30T07:38:50.189Z,73.54
2022-08-30T07:41:29.115Z,73.30
2022-08-30T07:43:56.679Z,72.86
2022-08-30T07:46:24.596Z,73.28
2022-08-30T07:48:54.236Z,72.19
2022-08-30T07:51:24.225Z,71.17
2022-08-30T07:53:51.448Z,71.79
2022-08-30T07:56:18.705Z,71.41
2022-08-30T07:58:45.415Z,71.54
2022-08-30T08:01:14.666Z,71.40
2022-08-30T08:06:50.732Z,71.16
2022-08-30T08:09:21.325Z,71.13
2022-08-30T08:11:57.937Z,70.59
2022-08-30T08:14:41.594Z,70.36
2022-08-30T08:17:20.044Z,69.87
2022-08-30T08:19:46.988Z,69.79
2022-08-30T08:22:21.732Z,69.18
2022-08-30T08:28:32.655Z,68.89
2022-08-30T08:31:52.565Z,69.03
2022-08-30T08:34:23.338Z,68.80
2022-08-30T08:45:00.839Z,68.10
2022-08-30T08:48:35.912Z,67.45
2022-08-30T08:51:44.853Z,67.25
2022-08-30T08:58:56.801Z,66.15
2022-08-30T09:27:52.003Z,63.05
2022-08-30T09:30:30.708Z,62.98
2022-08-30T09:33:02.930Z,62.18
2022-08-30T09:35:54.233Z,62.21
2022-08-30T09:38:31.173Z,62.14
2022-08-30T09:41:04.145Z,61.97
2022-08-30T09:43:33.884Z,61.88
2022-08-30T10:07:10.412Z,60.31
2022-08-30T10:19:11.920Z,59.03
2022-08-30T10:22:58.887Z,58.45
2022-08-30T10:25:30.564Z,59.36
2022-08-30T10:28:03.912Z,59.27
2022-08-30T10:31:34.848Z,58.82
2022-08-30T10:46:45.129Z,57.07
2022-08-30T10:49:31.859Z,57.81
2022-08-30T10:52:23.599Z,57.33
2022-08-30T11:04:16.524Z,54.63
2022-08-30T11:07:18.839Z,55.67
2022-08-30T11:10:29.155Z,55.33
2022-08-30T11:13:16.680Z,55.91
2022-08-30T11:25:08.450Z,55.70
2022-08-30T11:28:36.339Z,54.95
2022-08-30T11:36:18.937Z,54.76
2022-08-30T11:44:10.910Z,53.90
2022-08-30T11:51:09.729Z,53.75
2022-08-30T11:53:58.519Z,53.31
2022-08-30T11:56:31.520Z,53.44
2022-08-30T11:59:06.870Z,53.33
2022-08-30T12:01:50.752Z,53.79
2022-08-30T12:04:26.510Z,53.20
2022-08-30T12:07:05.746Z,53.18
2022-08-30T12:09:35.455Z,52.46
2022-08-30T12:17:36.387Z,51.44
2022-08-30T12:20:06.247Z,51.79
2022-08-30T12:26:52.362Z,50.83
2022-08-30T12:33:54.683Z,50.60
2022-08-30T12:36:56.108Z,51.04
2022-08-30T12:39:27.826Z,50.65
2022-08-30T12:41:55.971Z,50.48
2022-08-30T12:44:29.139Z,50.19
2022-08-30T12:46:59.777Z,50.19
2022-08-30T12:49:33.427Z,49.41
2022-08-30T12:52:23.495Z,48.24
2022-08-30T13:04:16.015Z,47.56
2022-08-30T13:07:42.334Z,49.07
2022-08-30T13:11:05.842Z,49.03
2022-08-30T13:15:01.491Z,47.93
2022-08-30T13:21:25.002Z,47.00
2022-08-30T13:24:57.596Z,45.80
2022-08-30T13:27:25.467Z,46.08
2022-08-30T13:30:42.634Z,46.09
2022-08-30T13:33:53.168Z,46.59
2022-08-30T14:26:38.749Z,46.36
2022-08-30T14:37:26.016Z,46.09
2022-08-30T14:40:00.494Z,45.79
2022-08-30T14:42:35.615Z,45.20
2022-08-30T14:45:11.834Z,45.72
2022-08-30T15:16:14.097Z,46.63
2022-08-30T15:18:45.562Z,46.67
2022-08-30T15:21:28.686Z,46.37
2022-08-30T15:24:04.906Z,45.95
2022-08-30T15:26:32.182Z,46.23
2022-08-30T15:29:05.786Z,46.15
2022-08-30T15:33:23.527Z,46.48
2022-08-30T15:45:20.933Z,46.64
2022-08-30T16:21:11.154Z,44.02
2022-08-30T16:23:43.191Z,44.24
2022-08-30T16:29:20.704Z,43.66
2022-08-30T16:36:12.068Z,43.22
2022-08-30T18:59:37.738Z,48.48
2022-08-30T19:10:52.070Z,49.16
2022-08-30T19:20:10.912Z,49.30
2022-08-30T19:23:08.814Z,49.27
2022-08-30T19:26:08.798Z,49.42
2022-08-30T19:28:38.373Z,49.73
2022-08-30T19:31:07.057Z,49.82
2022-08-30T19:33:51.473Z,49.94
2022-08-30T19:36:42.537Z,49.87
2022-08-30T19:39:12.011Z,49.77
2022-08-30T19:41:42.087Z,50.30
2022-08-30T19:44:20.485Z,50.58
2022-08-30T19:46:47.862Z,50.64
2022-08-30T19:49:14.867Z,50.51
2022-08-30T19:52:35.902Z,51.18
2022-08-30T19:55:18.662Z,50.85
2022-08-30T19:57:50.676Z,50.94
2022-08-30T20:00:18.251Z,51.17
2022-08-30T20:02:51.276Z,50.75
2022-08-30T20:05:21.711Z,50.92
2022-08-30T20:07:51.556Z,50.93
2022-08-30T20:11:11.187Z,50.37
2022-08-30T20:13:38.047Z,50.88
2022-08-30T20:16:10.439Z,50.78
2022-08-30T20:19:06.257Z,50.61
2022-08-30T20:21:37.263Z,50.54
2022-08-30T20:24:10.840Z,50.64
2022-08-30T20:26:39.739Z,50.40
2022-08-30T20:29:14.680Z,50.46
2022-08-30T20:31:44.170Z,50.45
2022-08-30T20:35:19.666Z,50.22
2022-08-30T20:38:08.484Z,50.45
2022-08-30T20:40:38.932Z,50.50
2022-08-30T20:43:12.141Z,50.54
2022-08-30T20:45:40.770Z,50.44
2022-08-30T20:48:10.855Z,50.15
2022-08-30T20:50:39.137Z,50.34
2022-08-30T20:53:06.027Z,50.20
2022-08-30T20:55:33.067Z,50.07
2022-08-30T20:57:59.997Z,50.32
2022-08-30T21:00:27.752Z,51.43
2022-08-30T21:02:54.646Z,50.66
2022-08-30T21:05:21.485Z,50.43
2022-08-30T21:07:53.406Z,50.36
2022-08-30T21:10:23.577Z,50.37
2022-08-30T21:12:57.670Z,50.14
2022-08-30T21:15:37.552Z,50.15
2022-08-30T21:18:07.707Z,50.03
2022-08-30T21:20:40.532Z,49.89
2022-08-30T21:23:16.417Z,50.05
2022-08-30T21:25:45.759Z,49.40
2022-08-30T21:28:34.759Z,49.44
2022-08-30T21:31:23.220Z,49.68
2022-08-30T21:33:52.186Z,49.50
2022-08-30T21:36:38.321Z,49.60
2022-08-30T21:39:06.628Z,49.52
2022-08-30T21:41:34.972Z,49.72
2022-08-30T21:44:04.707Z,49.63
2022-08-30T21:46:32.657Z,49.56
2022-08-30T21:49:52.118Z,49.71
2022-08-30T21:52:27.167Z,49.42
2022-08-30T21:54:55.281Z,50.45
2022-08-30T22:00:35.929Z,49.40
2022-08-30T22:03:04.169Z,49.52
2022-08-30T22:05:31.502Z,49.44
2022-08-30T22:07:58.603Z,49.39
2022-08-30T22:10:36.328Z,49.40
2022-08-30T22:13:05.578Z,49.67
2022-08-30T22:16:48.142Z,50.27
2022-08-30T22:24:14.611Z,49.39
2022-08-30T22:26:41.512Z,49.64
2022-08-30T22:33:33.145Z,49.65
2022-08-30T22:48:49.429Z,50.01
2022-08-30T22:51:18.862Z,50.08
2022-08-30T22:53:52.705Z,50.31
2022-08-30T22:56:22.271Z,50.62
2022-08-30T22:58:49.864Z,50.78
2022-08-30T23:01:21.103Z,51.03
2022-08-30T23:03:50.250Z,51.51
2022-08-30T23:06:17.476Z,51.46
2022-08-30T23:08:44.500Z,51.44
2022-08-30T23:11:11.621Z,51.73
2022-08-30T23:13:43.836Z,51.98
2022-08-30T23:16:13.414Z,52.11
2022-08-30T23:18:43.536Z,52.40
2022-08-30T23:21:12.301Z,52.61
2022-08-30T23:23:58.234Z,52.65
2022-08-30T23:26:43.681Z,52.69
2022-08-30T23:29:28.979Z,52.93
2022-08-30T23:32:14.933Z,53.05
2022-08-30T23:35:00.504Z,53.14
2022-08-30T23:37:45.834Z,53.15
2022-08-30T23:40:35.484Z,53.29
2022-08-30T23:43:23.490Z,53.59
2022-08-30T23:46:08.797Z,53.96
2022-08-30T23:48:57.098Z,54.19
2022-08-30T23:51:42.363Z,54.30
2022-08-30T23:54:27.591Z,54.45
2022-08-30T23:57:12.918Z,54.75
2022-08-30T23:59:58.311Z,54.59
